Terminal Aerodrome Forecast
Issued by NWS Portland, OR

Home | Current Version | Previous Version | Text Only | Print | Product List | Glossary On
Versions: 1 2 3 4 5 6 7 8 9 10 11 12 13 14 15 16 17 18 19 20 21 22 23 24 25 26
000
FTUS46 KPQR 202059 AAA
TAFPDX
TAF AMD
KPDX 202059Z 2021/2118 36010KT 4SM TSRA BKN025CB BKN035 BKN070
     FM202200 22009KT P6SM SCT035 BKN070
     FM210200 27005KT P6SM BKN035
     FM210600 20004KT P6SM OVC035
     FM211300 18004KT P6SM OVC025=

USA.gov is the U.S. government's official web portal to all federal, state and local government web resources and services.